sensor_id;sensor_type;location;lat;lon;timestamp;temperature;humidity
3190;DHT22;1606;51.946;10.558;2022-10-16T00:01:36;18.50;99.90
3190;DHT22;1606;51.946;10.558;2022-10-16T00:04:04;18.40;99.90
3190;DHT22;1606;51.946;10.558;2022-10-16T00:06:33;18.40;99.90
3190;DHT22;1606;51.946;10.558;2022-10-16T00:09:01;18.50;99.90
3190;DHT22;1606;51.946;10.558;2022-10-16T00:11:30;18.40;99.90
3190;DHT22;1606;51.946;10.558;2022-10-16T00:14:01;18.20;99.90
3190;DHT22;1606;51.946;10.558;2022-10-16T00:16:29;18.10;99.90
3190;DHT22;1606;51.946;10.558;2022-10-16T00:18:57;18.00;99.90
3190;DHT22;1606;51.946;10.558;2022-10-16T00:21:27;18.00;99.90
3190;DHT22;1606;51.946;10.558;2022-10-16T00:23:59;18.00;99.90
3190;DHT22;1606;51.946;10.558;2022-10-16T00:26:29;18.10;99.90
3190;DHT22;1606;51.946;10.558;2022-10-16T00:28:57;18.00;99.90
3190;DHT22;1606;51.946;10.558;2022-10-16T00:31:26;17.90;99.90
3190;DHT22;1606;51.946;10.558;2022-10-16T00:33:54;17.70;99.90
3190;DHT22;1606;51.946;10.558;2022-10-16T00:36:23;17.70;99.90
3190;DHT22;1606;51.946;10.558;2022-10-16T00:38:52;17.60;99.90
3190;DHT22;1606;51.946;10.558;2022-10-16T00:41:24;17.70;99.90
3190;DHT22;1606;51.946;10.558;2022-10-16T00:43:53;17.70;99.90
3190;DHT22;1606;51.946;10.558;2022-10-16T00:46:24;17.70;99.90
3190;DHT22;1606;51.946;10.558;2022-10-16T00:48:56;17.80;99.90
3190;DHT22;1606;51.946;10.558;2022-10-16T00:51:28;17.80;99.90
3190;DHT22;1606;51.946;10.558;2022-10-16T00:53:58;17.80;99.90
3190;DHT22;1606;51.946;10.558;2022-10-16T00:56:28;17.60;99.90
3190;DHT22;1606;51.946;10.558;2022-10-16T00:58:55;17.60;99.90
3190;DHT22;1606;51.946;10.558;2022-10-16T01:01:24;17.70;99.90
3190;DHT22;1606;51.946;10.558;2022-10-16T01:03:52;17.70;99.90
3190;DHT22;1606;51.946;10.558;2022-10-16T01:06:23;17.70;99.90
3190;DHT22;1606;51.946;10.558;2022-10-16T01:09:11;17.70;99.90
3190;DHT22;1606;51.946;10.558;2022-10-16T01:11:48;17.70;99.90
3190;DHT22;1606;51.946;10.558;2022-10-16T01:14:25;17.70;99.90
3190;DHT22;1606;51.946;10.558;2022-10-16T01:16:57;17.70;99.90
3190;DHT22;1606;51.946;10.558;2022-10-16T01:19:44;17.60;99.90
3190;DHT22;1606;51.946;10.558;2022-10-16T01:22:19;17.60;99.90
3190;DHT22;1606;51.946;10.558;2022-10-16T01:24:49;17.60;99.90
3190;DHT22;1606;51.946;10.558;2022-10-16T01:27:21;17.50;99.90
3190;DHT22;1606;51.946;10.558;2022-10-16T01:29:53;17.50;99.90
3190;DHT22;1606;51.946;10.558;2022-10-16T01:32:27;17.40;99.90
3190;DHT22;1606;51.946;10.558;2022-10-16T01:34:59;17.40;99.90
3190;DHT22;1606;51.946;10.558;2022-10-16T01:37:35;17.40;99.90
3190;DHT22;1606;51.946;10.558;2022-10-16T01:40:07;17.50;99.90
3190;DHT22;1606;51.946;10.558;2022-10-16T01:42:42;17.40;99.90
3190;DHT22;1606;51.946;10.558;2022-10-16T01:45:13;17.30;99.90
3190;DHT22;1606;51.946;10.558;2022-10-16T01:47:41;17.20;99.90
3190;DHT22;1606;51.946;10.558;2022-10-16T01:50:11;17.40;99.90
3190;DHT22;1606;51.946;10.558;2022-10-16T01:52:42;17.40;99.90
3190;DHT22;1606;51.946;10.558;2022-10-16T01:55:16;17.30;99.90
3190;DHT22;1606;51.946;10.558;2022-10-16T01:57:48;17.20;99.90
3190;DHT22;1606;51.946;10.558;2022-10-16T02:00:19;17.30;99.90
3190;DHT22;1606;51.946;10.558;2022-10-16T02:02:49;17.20;99.90
3190;DHT22;1606;51.946;10.558;2022-10-16T02:05:23;17.20;99.90
3190;DHT22;1606;51.946;10.558;2022-10-16T02:07:52;17.00;99.90
3190;DHT22;1606;51.946;10.558;2022-10-16T02:10:20;17.00;99.90
3190;DHT22;1606;51.946;10.558;2022-10-16T02:12:53;16.90;99.90
3190;DHT22;1606;51.946;10.558;2022-10-16T02:15:22;17.00;99.90
3190;DHT22;1606;51.946;10.558;2022-10-16T02:17:50;17.10;99.90
3190;DHT22;1606;51.946;10.558;2022-10-16T02:20:20;17.10;99.90
3190;DHT22;1606;51.946;10.558;2022-10-16T02:22:50;17.00;99.90
3190;DHT22;1606;51.946;10.558;2022-10-16T02:25:22;17.10;99.90
3190;DHT22;1606;51.946;10.558;2022-10-16T02:27:55;17.00;99.90
3190;DHT22;1606;51.946;10.558;2022-10-16T02:30:27;17.00;99.90
3190;DHT22;1606;51.946;10.558;2022-10-16T02:32:58;17.10;99.90
3190;DHT22;1606;51.946;10.558;2022-10-16T02:35:28;17.20;99.90
3190;DHT22;1606;51.946;10.558;2022-10-16T02:37:57;17.20;99.90
3190;DHT22;1606;51.946;10.558;2022-10-16T02:40:26;17.20;99.90
3190;DHT22;1606;51.946;10.558;2022-10-16T02:42:56;17.30;99.90
3190;DHT22;1606;51.946;10.558;2022-10-16T02:45:24;17.30;99.90
3190;DHT22;1606;51.946;10.558;2022-10-16T02:47:52;17.30;99.90
3190;DHT22;1606;51.946;10.558;2022-10-16T02:50:20;17.40;99.90
3190;DHT22;1606;51.946;10.558;2022-10-16T02:52:48;17.20;99.90
3190;DHT22;1606;51.946;10.558;2022-10-16T02:55:16;17.20;99.90
3190;DHT22;1606;51.946;10.558;2022-10-16T02:57:44;17.30;99.90
3190;DHT22;1606;51.946;10.558;2022-10-16T03:00:15;17.20;99.90
3190;DHT22;1606;51.946;10.558;2022-10-16T03:02:44;17.20;99.90
3190;DHT22;1606;51.946;10.558;2022-10-16T03:05:12;17.40;99.90
3190;DHT22;1606;51.946;10.558;2022-10-16T03:07:40;17.40;99.90
3190;DHT22;1606;51.946;10.558;2022-10-16T03:10:08;17.30;99.90
3190;DHT22;1606;51.946;10.558;2022-10-16T03:12:36;17.20;99.90
3190;DHT22;1606;51.946;10.558;2022-10-16T03:15:05;17.30;99.90
3190;DHT22;1606;51.946;10.558;2022-10-16T03:17:34;17.40;99.90
3190;DHT22;1606;51.946;10.558;2022-10-16T03:20:03;17.30;99.90
3190;DHT22;1606;51.946;10.558;2022-10-16T03:22:31;17.30;99.90
3190;DHT22;1606;51.946;10.558;2022-10-16T03:24:58;17.20;99.90
3190;DHT22;1606;51.946;10.558;2022-10-16T03:27:26;17.10;99.90
3190;DHT22;1606;51.946;10.558;2022-10-16T03:29:54;17.00;99.90
3190;DHT22;1606;51.946;10.558;2022-10-16T03:32:22;17.00;99.90
3190;DHT22;1606;51.946;10.558;2022-10-16T03:34:53;17.10;99.90
3190;DHT22;1606;51.946;10.558;2022-10-16T03:37:23;17.20;99.90
3190;DHT22;1606;51.946;10.558;2022-10-16T03:39:51;17.00;99.90
3190;DHT22;1606;51.946;10.558;2022-10-16T03:42:19;17.10;99.90
3190;DHT22;1606;51.946;10.558;2022-10-16T03:44:47;16.90;99.90
3190;DHT22;1606;51.946;10.558;2022-10-16T03:47:15;17.00;99.90
3190;DHT22;1606;51.946;10.558;2022-10-16T03:49:47;17.00;99.90
3190;DHT22;1606;51.946;10.558;2022-10-16T03:52:16;17.00;99.90
3190;DHT22;1606;51.946;10.558;2022-10-16T03:54:49;16.90;99.90
3190;DHT22;1606;51.946;10.558;2022-10-16T03:57:17;16.90;99.90
3190;DHT22;1606;51.946;10.558;2022-10-16T03:59:45;16.90;99.90
3190;DHT22;1606;51.946;10.558;2022-10-16T04:02:12;16.90;99.90
3190;DHT22;1606;51.946;10.558;2022-10-16T04:04:40;16.90;99.90
3190;DHT22;1606;51.946;10.558;2022-10-16T04:07:08;17.00;99.90
3190;DHT22;1606;51.946;10.558;2022-10-16T04:09:37;16.90;99.90
3190;DHT22;1606;51.946;10.558;2022-10-16T04:12:05;16.90;99.90
3190;DHT22;1606;51.946;10.558;2022-10-16T04:14:33;16.90;99.90
3190;DHT22;1606;51.946;10.558;2022-10-16T04:17:01;16.80;99.90
3190;DHT22;1606;51.946;10.558;2022-10-16T04:19:28;16.80;99.90
3190;DHT22;1606;51.946;10.558;2022-10-16T04:21:56;16.80;99.90
3190;DHT22;1606;51.946;10.558;2022-10-16T04:24:24;16.70;99.90
3190;DHT22;1606;51.946;10.558;2022-10-16T04:26:53;16.80;99.90
3190;DHT22;1606;51.946;10.558;2022-10-16T04:29:21;16.60;99.90
3190;DHT22;1606;51.946;10.558;2022-10-16T04:31:49;16.60;99.90
3190;DHT22;1606;51.946;10.558;2022-10-16T04:34:17;16.60;99.90
3190;DHT22;1606;51.946;10.558;2022-10-16T04:36:47;16.60;99.90
3190;DHT22;1606;51.946;10.558;2022-10-16T04:39:15;16.50;99.90
3190;DHT22;1606;51.946;10.558;2022-10-16T04:41:43;16.60;99.90
3190;DHT22;1606;51.946;10.558;2022-10-16T04:44:12;16.40;99.90
3190;DHT22;1606;51.946;10.558;2022-10-16T04:46:40;16.50;99.90
3190;DHT22;1606;51.946;10.558;2022-10-16T04:49:08;16.40;99.90
3190;DHT22;1606;51.946;10.558;2022-10-16T04:51:36;16.40;99.90
3190;DHT22;1606;51.946;10.558;2022-10-16T04:54:04;16.40;99.90
3190;DHT22;1606;51.946;10.558;2022-10-16T04:56:31;16.30;99.90
3190;DHT22;1606;51.946;10.558;2022-10-16T04:58:59;16.20;99.90
3190;DHT22;1606;51.946;10.558;2022-10-16T05:01:28;16.30;99.90
3190;DHT22;1606;51.946;10.558;2022-10-16T05:03:56;16.30;99.90
3190;DHT22;1606;51.946;10.558;2022-10-16T05:06:24;16.30;99.90
3190;DHT22;1606;51.946;10.558;2022-10-16T05:08:52;16.10;99.90
3190;DHT22;1606;51.946;10.558;2022-10-16T05:11:19;16.10;99.90
3190;DHT22;1606;51.946;10.558;2022-10-16T05:13:47;16.20;99.90
3190;DHT22;1606;51.946;10.558;2022-10-16T05:16:21;16.20;99.90
3190;DHT22;1606;51.946;10.558;2022-10-16T05:18:51;16.00;99.90
3190;DHT22;1606;51.946;10.558;2022-10-16T05:21:29;16.10;99.90
3190;DHT22;1606;51.946;10.558;2022-10-16T05:23:57;16.10;99.90
3190;DHT22;1606;51.946;10.558;2022-10-16T05:26:25;16.20;99.90
3190;DHT22;1606;51.946;10.558;2022-10-16T05:28:53;16.10;99.90
3190;DHT22;1606;51.946;10.558;2022-10-16T05:31:21;16.00;99.90
3190;DHT22;1606;51.946;10.558;2022-10-16T05:33:50;16.00;99.90
3190;DHT22;1606;51.946;10.558;2022-10-16T05:36:18;16.10;99.90
3190;DHT22;1606;51.946;10.558;2022-10-16T05:38:46;16.10;99.90
3190;DHT22;1606;51.946;10.558;2022-10-16T05:41:19;16.10;99.90
3190;DHT22;1606;51.946;10.558;2022-10-16T05:43:48;16.20;99.90
3190;DHT22;1606;51.946;10.558;2022-10-16T05:46:16;16.10;99.90
3190;DHT22;1606;51.946;10.558;2022-10-16T05:48:44;16.10;99.90
3190;DHT22;1606;51.946;10.558;2022-10-16T05:51:14;16.10;99.90
3190;DHT22;1606;51.946;10.558;2022-10-16T05:53:43;16.10;99.90
3190;DHT22;1606;51.946;10.558;2022-10-16T05:56:11;16.00;99.90
3190;DHT22;1606;51.946;10.558;2022-10-16T05:58:40;16.10;99.90
3190;DHT22;1606;51.946;10.558;2022-10-16T06:01:11;16.10;99.90
3190;DHT22;1606;51.946;10.558;2022-10-16T06:03:39;16.00;99.90
3190;DHT22;1606;51.946;10.558;2022-10-16T06:06:08;16.00;99.90
3190;DHT22;1606;51.946;10.558;2022-10-16T06:08:40;15.80;99.90
3190;DHT22;1606;51.946;10.558;2022-10-16T06:11:09;15.80;99.90
3190;DHT22;1606;51.946;10.558;2022-10-16T06:13:37;16.00;99.90
3190;DHT22;1606;51.946;10.558;2022-10-16T06:16:08;16.00;99.90
3190;DHT22;1606;51.946;10.558;2022-10-16T06:18:36;15.90;99.90
3190;DHT22;1606;51.946;10.558;2022-10-16T06:21:07;16.00;99.90
3190;DHT22;1606;51.946;10.558;2022-10-16T06:23:35;15.90;99.90
3190;DHT22;1606;51.946;10.558;2022-10-16T06:26:10;16.00;99.90
3190;DHT22;1606;51.946;10.558;2022-10-16T06:28:39;16.00;99.90
3190;DHT22;1606;51.946;10.558;2022-10-16T06:31:08;16.00;99.90
3190;DHT22;1606;51.946;10.558;2022-10-16T06:33:37;16.10;99.90
3190;DHT22;1606;51.946;10.558;2022-10-16T06:36:08;16.20;99.90
3190;DHT22;1606;51.946;10.558;2022-10-16T06:38:37;16.20;99.90
3190;DHT22;1606;51.946;10.558;2022-10-16T06:41:06;16.30;99.90
3190;DHT22;1606;51.946;10.558;2022-10-16T06:43:36;16.30;99.90
3190;DHT22;1606;51.946;10.558;2022-10-16T06:46:05;16.30;99.90
3190;DHT22;1606;51.946;10.558;2022-10-16T06:48:34;16.20;99.90
3190;DHT22;1606;51.946;10.558;2022-10-16T06:51:04;16.20;99.90
3190;DHT22;1606;51.946;10.558;2022-10-16T06:53:34;16.10;99.90
3190;DHT22;1606;51.946;10.558;2022-10-16T06:56:16;16.10;99.90
3190;DHT22;1606;51.946;10.558;2022-10-16T06:58:46;16.30;99.90
3190;DHT22;1606;51.946;10.558;2022-10-16T07:01:15;16.20;99.90
3190;DHT22;1606;51.946;10.558;2022-10-16T07:03:45;16.30;99.90
3190;DHT22;1606;51.946;10.558;2022-10-16T07:06:15;16.30;99.90
3190;DHT22;1606;51.946;10.558;2022-10-16T07:08:45;16.30;99.90
3190;DHT22;1606;51.946;10.558;2022-10-16T07:11:14;16.30;99.90
3190;DHT22;1606;51.946;10.558;2022-10-16T07:13:45;16.30;99.90
3190;DHT22;1606;51.946;10.558;2022-10-16T07:16:22;16.30;99.90
3190;DHT22;1606;51.946;10.558;2022-10-16T07:18:50;16.40;99.90
3190;DHT22;1606;51.946;10.558;2022-10-16T07:21:21;16.40;99.90
3190;DHT22;1606;51.946;10.558;2022-10-16T07:23:52;16.40;99.90
3190;DHT22;1606;51.946;10.558;2022-10-16T07:26:20;16.30;99.90
3190;DHT22;1606;51.946;10.558;2022-10-16T07:28:50;16.30;99.90
3190;DHT22;1606;51.946;10.558;2022-10-16T07:31:19;16.30;99.90
3190;DHT22;1606;51.946;10.558;2022-10-16T07:33:48;16.40;99.90
3190;DHT22;1606;51.946;10.558;2022-10-16T07:36:17;16.60;99.90
3190;DHT22;1606;51.946;10.558;2022-10-16T07:38:46;16.70;99.90
3190;DHT22;1606;51.946;10.558;2022-10-16T07:41:16;16.70;99.90
3190;DHT22;1606;51.946;10.558;2022-10-16T07:43:45;16.90;99.90
3190;DHT22;1606;51.946;10.558;2022-10-16T07:46:15;17.00;99.90
3190;DHT22;1606;51.946;10.558;2022-10-16T07:48:44;17.00;99.90
3190;DHT22;1606;51.946;10.558;2022-10-16T07:51:15;17.10;99.90
3190;DHT22;1606;51.946;10.558;2022-10-16T07:53:43;17.30;99.90
3190;DHT22;1606;51.946;10.558;2022-10-16T07:56:11;17.40;99.90
3190;DHT22;1606;51.946;10.558;2022-10-16T07:58:39;17.40;99.90
3190;DHT22;1606;51.946;10.558;2022-10-16T08:01:08;17.50;99.90
3190;DHT22;1606;51.946;10.558;2022-10-16T08:03:38;17.70;99.90
3190;DHT22;1606;51.946;10.558;2022-10-16T08:06:06;17.60;99.90
3190;DHT22;1606;51.946;10.558;2022-10-16T08:08:34;17.70;99.90
3190;DHT22;1606;51.946;10.558;2022-10-16T08:11:02;17.60;99.90
3190;DHT22;1606;51.946;10.558;2022-10-16T08:13:31;17.70;99.90
3190;DHT22;1606;51.946;10.558;2022-10-16T08:15:58;17.80;99.90
3190;DHT22;1606;51.946;10.558;2022-10-16T08:18:26;17.90;99.90
3190;DHT22;1606;51.946;10.558;2022-10-16T08:20:59;17.90;99.90
3190;DHT22;1606;51.946;10.558;2022-10-16T08:23:27;18.10;99.90
3190;DHT22;1606;51.946;10.558;2022-10-16T08:25:56;17.90;99.90
3190;DHT22;1606;51.946;10.558;2022-10-16T08:28:29;18.00;99.90
3190;DHT22;1606;51.946;10.558;2022-10-16T08:31:04;18.00;99.90
3190;DHT22;1606;51.946;10.558;2022-10-16T08:33:32;18.20;99.90
3190;DHT22;1606;51.946;10.558;2022-10-16T08:36:03;18.30;99.90
3190;DHT22;1606;51.946;10.558;2022-10-16T08:38:31;18.20;99.90
3190;DHT22;1606;51.946;10.558;2022-10-16T08:41:18;18.20;99.90
3190;DHT22;1606;51.946;10.558;2022-10-16T08:44:00;18.20;99.90
3190;DHT22;1606;51.946;10.558;2022-10-16T08:46:42;18.20;99.90
3190;DHT22;1606;51.946;10.558;2022-10-16T08:49:16;18.40;99.90
3190;DHT22;1606;51.946;10.558;2022-10-16T08:51:46;18.40;99.90
3190;DHT22;1606;51.946;10.558;2022-10-16T08:54:24;18.60;99.90
3190;DHT22;1606;51.946;10.558;2022-10-16T08:56:54;18.60;99.90
3190;DHT22;1606;51.946;10.558;2022-10-16T08:59:22;18.60;99.90
3190;DHT22;1606;51.946;10.558;2022-10-16T09:01:52;18.80;99.90
3190;DHT22;1606;51.946;10.558;2022-10-16T09:04:44;18.70;99.90
3190;DHT22;1606;51.946;10.558;2022-10-16T09:07:27;18.80;99.90
3190;DHT22;1606;51.946;10.558;2022-10-16T09:10:11;18.90;99.90
3190;DHT22;1606;51.946;10.558;2022-10-16T09:12:48;19.10;99.90
3190;DHT22;1606;51.946;10.558;2022-10-16T09:15:25;19.10;99.90
3190;DHT22;1606;51.946;10.558;2022-10-16T09:17:58;19.00;99.90
3190;DHT22;1606;51.946;10.558;2022-10-16T09:20:32;18.80;99.90
3190;DHT22;1606;51.946;10.558;2022-10-16T09:23:13;18.80;99.90
3190;DHT22;1606;51.946;10.558;2022-10-16T09:25:45;18.90;99.90
3190;DHT22;1606;51.946;10.558;2022-10-16T09:28:14;18.80;99.90
3190;DHT22;1606;51.946;10.558;2022-10-16T09:30:43;18.80;99.90
3190;DHT22;1606;51.946;10.558;2022-10-16T09:33:12;18.90;99.90
3190;DHT22;1606;51.946;10.558;2022-10-16T09:35:42;19.10;99.90
3190;DHT22;1606;51.946;10.558;2022-10-16T09:38:25;19.20;99.90
3190;DHT22;1606;51.946;10.558;2022-10-16T09:40:55;19.20;99.90
3190;DHT22;1606;51.946;10.558;2022-10-16T09:43:32;19.30;99.90
3190;DHT22;1606;51.946;10.558;2022-10-16T09:46:03;19.30;99.90
3190;DHT22;1606;51.946;10.558;2022-10-16T09:48:35;19.40;99.90
3190;DHT22;1606;51.946;10.558;2022-10-16T09:51:05;19.40;99.90
3190;DHT22;1606;51.946;10.558;2022-10-16T09:53:41;19.40;99.90
3190;DHT22;1606;51.946;10.558;2022-10-16T09:56:11;19.20;99.90
3190;DHT22;1606;51.946;10.558;2022-10-16T09:58:49;19.20;99.90
3190;DHT22;1606;51.946;10.558;2022-10-16T10:01:17;19.20;99.90
3190;DHT22;1606;51.946;10.558;2022-10-16T10:03:46;19.50;99.90
3190;DHT22;1606;51.946;10.558;2022-10-16T10:06:19;19.60;99.90
3190;DHT22;1606;51.946;10.558;2022-10-16T10:08:59;19.60;99.90
3190;DHT22;1606;51.946;10.558;2022-10-16T10:11:42;19.60;99.90
3190;DHT22;1606;51.946;10.558;2022-10-16T10:14:17;19.60;99.90
3190;DHT22;1606;51.946;10.558;2022-10-16T10:16:46;19.70;99.90
3190;DHT22;1606;51.946;10.558;2022-10-16T10:19:16;20.00;99.90
3190;DHT22;1606;51.946;10.558;2022-10-16T10:21:44;20.20;99.90
3190;DHT22;1606;51.946;10.558;2022-10-16T10:24:15;20.30;99.90
3190;DHT22;1606;51.946;10.558;2022-10-16T10:26:49;20.10;99.90
3190;DHT22;1606;51.946;10.558;2022-10-16T10:29:45;20.10;99.90
3190;DHT22;1606;51.946;10.558;2022-10-16T10:32:23;20.40;99.90
3190;DHT22;1606;51.946;10.558;2022-10-16T10:35:15;20.40;99.90
3190;DHT22;1606;51.946;10.558;2022-10-16T10:37:53;20.50;99.90
3190;DHT22;1606;51.946;10.558;2022-10-16T10:40:34;20.60;99.90
3190;DHT22;1606;51.946;10.558;2022-10-16T10:43:15;20.60;99.90
3190;DHT22;1606;51.946;10.558;2022-10-16T10:45:47;20.60;99.90
3190;DHT22;1606;51.946;10.558;2022-10-16T10:48:22;20.80;99.90
3190;DHT22;1606;51.946;10.558;2022-10-16T10:50:55;20.60;99.90
3190;DHT22;1606;51.946;10.558;2022-10-16T10:53:33;20.70;99.90
3190;DHT22;1606;51.946;10.558;2022-10-16T10:56:14;20.50;99.90
3190;DHT22;1606;51.946;10.558;2022-10-16T10:59:07;20.30;99.90
3190;DHT22;1606;51.946;10.558;2022-10-16T11:01:43;20.50;99.90
3190;DHT22;1606;51.946;10.558;2022-10-16T11:04:47;20.40;99.90
3190;DHT22;1606;51.946;10.558;2022-10-16T11:07:19;20.40;99.90
3190;DHT22;1606;51.946;10.558;2022-10-16T11:09:52;20.60;99.90
3190;DHT22;1606;51.946;10.558;2022-10-16T11:12:25;20.70;99.90
3190;DHT22;1606;51.946;10.558;2022-10-16T11:14:58;20.80;99.90
3190;DHT22;1606;51.946;10.558;2022-10-16T11:17:33;21.10;99.90
3190;DHT22;1606;51.946;10.558;2022-10-16T11:20:10;21.10;99.90
3190;DHT22;1606;51.946;10.558;2022-10-16T11:22:43;20.90;99.90
3190;DHT22;1606;51.946;10.558;2022-10-16T11:25:16;20.90;99.90
3190;DHT22;1606;51.946;10.558;2022-10-16T11:27:51;21.10;99.90
3190;DHT22;1606;51.946;10.558;2022-10-16T11:30:22;21.30;99.80
3190;DHT22;1606;51.946;10.558;2022-10-16T11:33:02;21.60;99.90
3190;DHT22;1606;51.946;10.558;2022-10-16T11:35:39;21.60;99.90
3190;DHT22;1606;51.946;10.558;2022-10-16T11:38:15;21.80;97.90
3190;DHT22;1606;51.946;10.558;2022-10-16T11:40:48;21.70;97.40
3190;DHT22;1606;51.946;10.558;2022-10-16T11:43:25;21.50;97.00
3190;DHT22;1606;51.946;10.558;2022-10-16T11:45:56;21.50;96.90
3190;DHT22;1606;51.946;10.558;2022-10-16T11:48:30;21.50;97.70
3190;DHT22;1606;51.946;10.558;2022-10-16T11:51:05;21.60;97.30
3190;DHT22;1606;51.946;10.558;2022-10-16T11:53:42;21.70;96.40
3190;DHT22;1606;51.946;10.558;2022-10-16T11:56:13;21.20;96.40
3190;DHT22;1606;51.946;10.558;2022-10-16T11:58:53;21.20;97.70
3190;DHT22;1606;51.946;10.558;2022-10-16T12:01:27;21.40;97.60
3190;DHT22;1606;51.946;10.558;2022-10-16T12:04:07;21.50;96.90
3190;DHT22;1606;51.946;10.558;2022-10-16T12:06:44;21.60;97.20
3190;DHT22;1606;51.946;10.558;2022-10-16T12:09:20;21.80;96.80
3190;DHT22;1606;51.946;10.558;2022-10-16T12:11:49;21.90;96.80
3190;DHT22;1606;51.946;10.558;2022-10-16T12:14:34;21.70;96.70
3190;DHT22;1606;51.946;10.558;2022-10-16T12:17:25;21.80;96.70
3190;DHT22;1606;51.946;10.558;2022-10-16T12:19:58;22.00;96.90
3190;DHT22;1606;51.946;10.558;2022-10-16T12:22:28;22.10;97.00
3190;DHT22;1606;51.946;10.558;2022-10-16T12:24:57;22.00;95.90
3190;DHT22;1606;51.946;10.558;2022-10-16T12:27:29;21.60;95.20
3190;DHT22;1606;51.946;10.558;2022-10-16T12:30:00;21.40;95.20
3190;DHT22;1606;51.946;10.558;2022-10-16T12:32:32;21.40;95.50
3190;DHT22;1606;51.946;10.558;2022-10-16T12:35:19;21.50;95.10
3190;DHT22;1606;51.946;10.558;2022-10-16T12:37:48;21.40;95.10
3190;DHT22;1606;51.946;10.558;2022-10-16T12:40:25;21.50;95.00
3190;DHT22;1606;51.946;10.558;2022-10-16T12:42:54;21.80;94.80
3190;DHT22;1606;51.946;10.558;2022-10-16T12:45:28;21.90;94.70
3190;DHT22;1606;51.946;10.558;2022-10-16T12:47:58;21.90;94.70
3190;DHT22;1606;51.946;10.558;2022-10-16T12:50:33;21.90;94.90
3190;DHT22;1606;51.946;10.558;2022-10-16T12:53:03;21.80;95.30
3190;DHT22;1606;51.946;10.558;2022-10-16T12:55:40;21.80;94.60
3190;DHT22;1606;51.946;10.558;2022-10-16T12:58:22;21.80;95.20
3190;DHT22;1606;51.946;10.558;2022-10-16T13:00:57;22.00;94.50
3190;DHT22;1606;51.946;10.558;2022-10-16T13:03:39;22.10;94.60
3190;DHT22;1606;51.946;10.558;2022-10-16T13:06:19;21.70;95.10
3190;DHT22;1606;51.946;10.558;2022-10-16T13:09:07;21.80;95.30
3190;DHT22;1606;51.946;10.558;2022-10-16T13:11:54;22.10;95.50
3190;DHT22;1606;51.946;10.558;2022-10-16T13:17:39;22.00;94.80
3190;DHT22;1606;51.946;10.558;2022-10-16T13:20:16;21.90;94.70
3190;DHT22;1606;51.946;10.558;2022-10-16T13:22:54;21.70;95.10
3190;DHT22;1606;51.946;10.558;2022-10-16T13:25:31;21.80;95.30
3190;DHT22;1606;51.946;10.558;2022-10-16T13:28:06;21.70;95.20
3190;DHT22;1606;51.946;10.558;2022-10-16T13:30:38;21.60;96.00
3190;DHT22;1606;51.946;10.558;2022-10-16T13:33:14;21.40;95.60
3190;DHT22;1606;51.946;10.558;2022-10-16T13:35:53;21.40;95.70
3190;DHT22;1606;51.946;10.558;2022-10-16T13:38:23;21.50;95.40
3190;DHT22;1606;51.946;10.558;2022-10-16T13:40:54;21.60;95.60
3190;DHT22;1606;51.946;10.558;2022-10-16T13:43:25;21.50;94.80
3190;DHT22;1606;51.946;10.558;2022-10-16T13:45:55;21.50;95.40
3190;DHT22;1606;51.946;10.558;2022-10-16T13:48:25;21.40;94.90
3190;DHT22;1606;51.946;10.558;2022-10-16T13:51:03;21.60;95.20
3190;DHT22;1606;51.946;10.558;2022-10-16T13:53:33;21.50;94.40
3190;DHT22;1606;51.946;10.558;2022-10-16T13:56:03;21.60;94.70
3190;DHT22;1606;51.946;10.558;2022-10-16T13:58:31;21.50;94.70
3190;DHT22;1606;51.946;10.558;2022-10-16T14:01:01;21.60;94.60
3190;DHT22;1606;51.946;10.558;2022-10-16T14:03:32;21.70;94.30
3190;DHT22;1606;51.946;10.558;2022-10-16T14:06:04;21.80;94.80
3190;DHT22;1606;51.946;10.558;2022-10-16T14:08:35;21.80;94.80
3190;DHT22;1606;51.946;10.558;2022-10-16T14:11:03;21.50;95.10
3190;DHT22;1606;51.946;10.558;2022-10-16T14:13:34;21.70;94.70
3190;DHT22;1606;51.946;10.558;2022-10-16T14:16:07;21.80;94.80
3190;DHT22;1606;51.946;10.558;2022-10-16T14:18:38;21.80;94.70
3190;DHT22;1606;51.946;10.558;2022-10-16T14:21:12;21.60;94.50
3190;DHT22;1606;51.946;10.558;2022-10-16T14:23:42;21.40;94.60
3190;DHT22;1606;51.946;10.558;2022-10-16T14:26:15;21.40;94.90
3190;DHT22;1606;51.946;10.558;2022-10-16T14:28:44;21.30;95.00
3190;DHT22;1606;51.946;10.558;2022-10-16T14:31:30;21.60;95.00
3190;DHT22;1606;51.946;10.558;2022-10-16T14:33:59;21.80;94.60
3190;DHT22;1606;51.946;10.558;2022-10-16T14:36:28;21.80;94.00
3190;DHT22;1606;51.946;10.558;2022-10-16T14:39:00;21.90;93.80
3190;DHT22;1606;51.946;10.558;2022-10-16T14:41:30;21.70;94.20
3190;DHT22;1606;51.946;10.558;2022-10-16T14:44:02;21.70;94.20
3190;DHT22;1606;51.946;10.558;2022-10-16T14:46:34;21.90;94.80
3190;DHT22;1606;51.946;10.558;2022-10-16T14:49:14;21.80;94.70
3190;DHT22;1606;51.946;10.558;2022-10-16T14:51:43;21.70;94.30
3190;DHT22;1606;51.946;10.558;2022-10-16T14:54:13;21.50;94.90
3190;DHT22;1606;51.946;10.558;2022-10-16T14:56:46;21.60;94.80
3190;DHT22;1606;51.946;10.558;2022-10-16T14:59:17;21.60;94.00
3190;DHT22;1606;51.946;10.558;2022-10-16T15:01:46;21.40;94.20
3190;DHT22;1606;51.946;10.558;2022-10-16T15:04:15;21.50;93.80
3190;DHT22;1606;51.946;10.558;2022-10-16T15:06:44;21.60;93.90
3190;DHT22;1606;51.946;10.558;2022-10-16T15:09:12;21.70;94.00
3190;DHT22;1606;51.946;10.558;2022-10-16T15:11:41;21.60;94.10
3190;DHT22;1606;51.946;10.558;2022-10-16T15:14:11;21.70;94.10
3190;DHT22;1606;51.946;10.558;2022-10-16T15:16:40;21.50;94.40
3190;DHT22;1606;51.946;10.558;2022-10-16T15:19:08;21.30;94.70
3190;DHT22;1606;51.946;10.558;2022-10-16T15:21:37;21.40;95.40
3190;DHT22;1606;51.946;10.558;2022-10-16T15:24:09;21.30;95.40
3190;DHT22;1606;51.946;10.558;2022-10-16T15:26:44;21.50;94.90
3190;DHT22;1606;51.946;10.558;2022-10-16T15:29:13;21.60;94.90
3190;DHT22;1606;51.946;10.558;2022-10-16T15:31:41;21.60;94.90
3190;DHT22;1606;51.946;10.558;2022-10-16T15:34:10;21.20;94.90
3190;DHT22;1606;51.946;10.558;2022-10-16T15:36:41;21.20;95.20
3190;DHT22;1606;51.946;10.558;2022-10-16T15:39:13;21.50;95.10
3190;DHT22;1606;51.946;10.558;2022-10-16T15:41:41;21.70;94.80
3190;DHT22;1606;51.946;10.558;2022-10-16T15:44:09;21.70;94.90
3190;DHT22;1606;51.946;10.558;2022-10-16T15:46:37;21.60;95.40
3190;DHT22;1606;51.946;10.558;2022-10-16T15:49:05;21.60;95.90
3190;DHT22;1606;51.946;10.558;2022-10-16T15:51:33;21.60;96.40
3190;DHT22;1606;51.946;10.558;2022-10-16T15:54:02;21.50;96.80
3190;DHT22;1606;51.946;10.558;2022-10-16T15:56:30;21.60;96.50
3190;DHT22;1606;51.946;10.558;2022-10-16T15:58:59;21.30;96.90
3190;DHT22;1606;51.946;10.558;2022-10-16T16:01:31;21.20;97.50
3190;DHT22;1606;51.946;10.558;2022-10-16T16:03:59;21.20;98.10
3190;DHT22;1606;51.946;10.558;2022-10-16T16:06:41;21.10;98.40
3190;DHT22;1606;51.946;10.558;2022-10-16T16:09:13;21.10;98.90
3190;DHT22;1606;51.946;10.558;2022-10-16T16:11:41;21.00;99.20
3190;DHT22;1606;51.946;10.558;2022-10-16T16:14:11;20.90;99.10
3190;DHT22;1606;51.946;10.558;2022-10-16T16:16:39;20.80;99.40